createdAt,value
2022-12-05T00:00:35.385Z,5.96
2022-12-05T00:02:38.471Z,5.97
2022-12-05T00:04:44.157Z,5.96
2022-12-05T00:06:47.180Z,5.91
2022-12-05T00:08:50.487Z,5.89
2022-12-05T00:10:53.484Z,5.86
2022-12-05T00:12:56.529Z,5.79
2022-12-05T00:14:59.580Z,5.74
2022-12-05T00:17:02.730Z,5.65
2022-12-05T00:19:07.002Z,5.64
2022-12-05T00:21:16.337Z,5.60
2022-12-05T00:23:19.246Z,5.60
2022-12-05T00:25:22.250Z,5.58
2022-12-05T00:27:25.198Z,5.53
2022-12-05T00:29:28.169Z,5.49
2022-12-05T00:31:31.261Z,5.50
2022-12-05T00:33:34.397Z,5.46
2022-12-05T00:35:37.389Z,5.47
2022-12-05T00:37:41.714Z,5.51
2022-12-05T00:39:44.857Z,5.53
2022-12-05T00:41:47.805Z,5.60
2022-12-05T00:43:51.330Z,5.61
2022-12-05T00:45:54.381Z,5.60
2022-12-05T00:47:57.376Z,5.60
2022-12-05T00:50:00.550Z,5.53
2022-12-05T00:52:03.597Z,5.48
2022-12-05T00:54:10.740Z,5.47
2022-12-05T00:56:16.759Z,5.42
2022-12-05T00:58:19.764Z,5.44
2022-12-05T01:00:22.754Z,5.42
2022-12-05T01:02:25.795Z,5.35
2022-12-05T01:04:28.863Z,5.34
2022-12-05T01:06:32.885Z,5.33
2022-12-05T01:08:36.721Z,5.26
2022-12-05T01:10:41.006Z,5.25
2022-12-05T01:12:44.162Z,5.27
2022-12-05T01:14:47.198Z,5.24
2022-12-05T01:16:51.759Z,5.25
2022-12-05T01:18:55.232Z,5.22
2022-12-05T01:20:58.466Z,5.18
2022-12-05T01:23:01.564Z,5.17
2022-12-05T01:25:05.186Z,5.19
2022-12-05T01:27:09.594Z,5.18
2022-12-05T01:29:15.087Z,5.12
2022-12-05T01:31:20.270Z,5.05
2022-12-05T01:33:23.206Z,4.98
2022-12-05T01:35:26.162Z,4.93
2022-12-05T01:37:29.145Z,4.92
2022-12-05T01:39:32.097Z,4.90
2022-12-05T01:41:38.236Z,4.94
2022-12-05T01:44:02.826Z,4.94
2022-12-05T01:46:07.157Z,4.96
2022-12-05T01:48:13.741Z,4.93
2022-12-05T01:50:16.653Z,4.88
2022-12-05T01:52:22.855Z,4.87
2022-12-05T01:54:25.971Z,4.91
2022-12-05T01:56:29.005Z,4.87
2022-12-05T01:58:37.324Z,4.90
2022-12-05T02:00:41.759Z,4.92
2022-12-05T02:02:47.912Z,4.95
2022-12-05T02:04:56.116Z,5.01
2022-12-05T02:06:59.151Z,5.07
2022-12-05T02:09:02.419Z,5.12
2022-12-05T02:11:07.894Z,5.18
2022-12-05T02:13:26.686Z,5.22
2022-12-05T02:15:38.049Z,5.27
2022-12-05T02:17:50.395Z,5.33
2022-12-05T02:20:04.522Z,5.36
2022-12-05T02:22:39.227Z,5.41
2022-12-05T02:25:10.405Z,5.45
2022-12-05T02:27:33.259Z,5.49
2022-12-05T02:30:11.807Z,5.52
2022-12-05T02:32:19.410Z,5.53
2022-12-05T02:34:27.915Z,5.55
2022-12-05T02:36:36.424Z,5.55
2022-12-05T02:38:43.133Z,5.57
2022-12-05T02:40:53.022Z,5.58
2022-12-05T02:43:00.996Z,5.61
2022-12-05T02:45:09.815Z,5.60
2022-12-05T02:47:16.411Z,5.58
2022-12-05T02:49:22.773Z,5.57
2022-12-05T02:51:29.252Z,5.54
2022-12-05T02:53:32.689Z,5.51
2022-12-05T02:55:36.683Z,5.48
2022-12-05T02:57:39.994Z,5.46
2022-12-05T02:59:43.018Z,5.45
2022-12-05T03:01:47.603Z,5.43
2022-12-05T03:03:52.430Z,5.41
2022-12-05T03:06:01.206Z,5.40
2022-12-05T03:08:05.925Z,5.39
2022-12-05T03:10:09.541Z,5.39
2022-12-05T03:12:17.150Z,5.35
2022-12-05T03:14:22.883Z,5.35
2022-12-05T03:16:30.401Z,5.39
2022-12-05T03:18:36.613Z,5.40
2022-12-05T03:20:45.577Z,5.41
2022-12-05T03:22:51.150Z,5.45
2022-12-05T03:24:54.756Z,5.48
2022-12-05T03:27:03.264Z,5.51
2022-12-05T03:29:18.962Z,5.55
2022-12-05T03:31:34.515Z,5.58
2022-12-05T03:33:42.793Z,5.61
2022-12-05T03:35:50.789Z,5.63
2022-12-05T03:37:58.336Z,5.62
2022-12-05T03:40:07.460Z,5.60
2022-12-05T03:42:14.010Z,5.60
2022-12-05T03:44:20.328Z,5.61
2022-12-05T03:46:26.033Z,5.62
2022-12-05T03:48:31.742Z,5.66
2022-12-05T03:50:36.375Z,5.68
2022-12-05T03:53:17.519Z,5.69
2022-12-05T03:55:10.085Z,5.70
2022-12-05T03:57:16.473Z,5.71
2022-12-05T03:59:22.652Z,5.72
2022-12-05T04:01:28.469Z,5.71
2022-12-05T04:03:39.692Z,5.72
2022-12-05T04:05:46.129Z,5.71
2022-12-05T04:07:53.959Z,5.70
2022-12-05T04:10:00.413Z,5.73
2022-12-05T04:12:06.026Z,5.76
2022-12-05T04:14:11.894Z,5.77
2022-12-05T04:16:36.006Z,5.76
2022-12-05T04:18:43.253Z,5.73
2022-12-05T04:21:03.898Z,5.73
2022-12-05T04:23:08.969Z,5.67
2022-12-05T04:25:31.445Z,5.67
2022-12-05T04:27:40.215Z,5.69
2022-12-05T04:29:47.651Z,5.71
2022-12-05T04:31:54.472Z,5.72
2022-12-05T04:34:01.335Z,5.75
2022-12-05T04:36:09.091Z,5.76
2022-12-05T04:38:16.495Z,5.78
2022-12-05T04:40:21.463Z,5.79
2022-12-05T04:42:27.555Z,5.80
2022-12-05T04:44:32.988Z,5.83
2022-12-05T04:46:36.914Z,5.83
2022-12-05T04:48:41.089Z,5.84
2022-12-05T04:50:46.226Z,5.86
2022-12-05T04:52:51.867Z,5.85
2022-12-05T04:54:59.003Z,5.89
2022-12-05T04:57:06.307Z,5.90
2022-12-05T04:59:09.276Z,5.89
2022-12-05T05:01:15.775Z,5.88
2022-12-05T05:03:23.076Z,5.89
2022-12-05T05:05:26.603Z,5.90
2022-12-05T05:07:30.041Z,5.91
2022-12-05T05:09:33.112Z,5.92
2022-12-05T05:11:37.707Z,5.93
2022-12-05T05:13:40.685Z,5.93
2022-12-05T05:15:43.722Z,5.94
2022-12-05T05:17:46.664Z,5.94
2022-12-05T05:19:49.737Z,5.94
2022-12-05T05:21:53.249Z,5.92
2022-12-05T05:23:56.672Z,5.94
2022-12-05T05:25:59.781Z,5.95
2022-12-05T05:28:04.289Z,5.97
2022-12-05T05:30:08.634Z,5.99
2022-12-05T05:32:11.956Z,6.01
2022-12-05T05:34:16.923Z,6.01
2022-12-05T05:36:20.574Z,6.02
2022-12-05T05:38:23.640Z,6.00
2022-12-05T05:40:26.723Z,6.01
2022-12-05T05:42:29.712Z,5.99
2022-12-05T05:44:34.180Z,5.98
2022-12-05T05:46:37.421Z,5.91
2022-12-05T05:48:40.816Z,5.85
2022-12-05T05:50:43.798Z,5.84
2022-12-05T05:52:47.429Z,5.85
2022-12-05T05:54:50.365Z,5.87
2022-12-05T05:56:53.391Z,5.85
2022-12-05T05:58:58.332Z,5.84
2022-12-05T06:01:05.466Z,5.86
2022-12-05T06:03:09.508Z,5.89
2022-12-05T06:05:12.571Z,5.92
2022-12-05T06:07:15.624Z,5.93
2022-12-05T06:09:18.558Z,5.94
2022-12-05T06:11:26.181Z,5.97
2022-12-05T06:13:29.638Z,5.98
2022-12-05T06:15:32.561Z,5.99
2022-12-05T06:17:37.071Z,6.00
2022-12-05T06:19:40.095Z,6.00
2022-12-05T06:21:43.115Z,6.02
2022-12-05T06:23:46.323Z,6.02
2022-12-05T06:25:49.968Z,6.03
2022-12-05T06:27:52.951Z,6.01
2022-12-05T06:29:56.119Z,5.92
2022-12-05T06:31:59.465Z,5.88
2022-12-05T06:34:05.407Z,5.81
2022-12-05T06:36:10.654Z,5.82
2022-12-05T06:38:13.637Z,5.88
2022-12-05T06:40:16.720Z,5.90
2022-12-05T06:42:22.208Z,5.93
2022-12-05T06:44:26.941Z,5.95
2022-12-05T06:46:30.040Z,5.96
2022-12-05T06:48:33.087Z,5.98
2022-12-05T06:50:37.457Z,5.99
2022-12-05T06:52:40.430Z,6.01
2022-12-05T06:54:43.404Z,6.04
2022-12-05T06:56:46.389Z,6.06
2022-12-05T06:58:52.433Z,6.05
2022-12-05T07:01:13.601Z,6.06
2022-12-05T07:03:16.621Z,6.07
2022-12-05T07:05:19.802Z,6.08
2022-12-05T07:07:24.133Z,6.10
2022-12-05T07:09:45.982Z,6.10
2022-12-05T07:11:49.385Z,6.11
2022-12-05T07:13:52.411Z,6.12
2022-12-05T07:15:55.338Z,6.12
2022-12-05T07:17:58.332Z,6.14
2022-12-05T07:20:01.412Z,6.15
2022-12-05T07:22:04.774Z,6.15
2022-12-05T07:24:09.180Z,6.17
2022-12-05T07:26:13.589Z,6.17
2022-12-05T07:28:16.551Z,6.18
2022-12-05T07:30:19.685Z,6.20
2022-12-05T07:32:22.702Z,6.21
2022-12-05T07:34:26.307Z,6.22
2022-12-05T07:36:29.411Z,6.22
2022-12-05T07:38:32.443Z,6.25
2022-12-05T07:40:38.616Z,6.25
2022-12-05T07:42:41.645Z,6.26
2022-12-05T07:44:44.676Z,6.26
2022-12-05T07:46:47.730Z,6.27
2022-12-05T07:48:52.343Z,6.26
2022-12-05T07:50:55.250Z,6.27
2022-12-05T07:52:58.204Z,6.26
2022-12-05T07:55:01.255Z,6.26
2022-12-05T07:57:05.753Z,6.26
2022-12-05T07:59:08.725Z,6.27
2022-12-05T08:01:13.380Z,6.29
2022-12-05T08:03:16.465Z,6.29
2022-12-05T08:05:20.469Z,6.27
2022-12-05T08:07:23.612Z,6.22
2022-12-05T08:09:27.625Z,6.12
2022-12-05T08:11:35.264Z,6.07
2022-12-05T08:13:39.641Z,6.02
2022-12-05T08:15:42.759Z,6.01
2022-12-05T08:17:45.815Z,5.98
2022-12-05T08:19:48.823Z,6.03
2022-12-05T08:21:52.449Z,6.02
2022-12-05T08:23:55.832Z,6.07
2022-12-05T08:26:03.125Z,6.11
2022-12-05T08:28:06.393Z,6.15
2022-12-05T08:30:11.224Z,6.22
2022-12-05T08:32:14.233Z,6.26
2022-12-05T08:34:19.912Z,6.32
2022-12-05T08:36:22.951Z,6.35
2022-12-05T08:38:26.144Z,6.40
2022-12-05T08:40:29.153Z,6.46
2022-12-05T08:42:32.650Z,6.51
2022-12-05T08:44:35.802Z,6.56
2022-12-05T08:46:40.289Z,6.58
2022-12-05T08:48:43.418Z,6.59
2022-12-05T08:50:46.455Z,6.57
2022-12-05T08:52:49.483Z,6.57
2022-12-05T08:54:53.038Z,6.56
2022-12-05T08:56:56.127Z,6.58
2022-12-05T08:59:05.274Z,6.58
2022-12-05T09:01:11.000Z,6.60
2022-12-05T09:03:15.720Z,6.62
2022-12-05T09:05:28.269Z,6.63
2022-12-05T09:07:31.971Z,6.63
2022-12-05T09:09:35.426Z,6.68
2022-12-05T09:11:40.845Z,6.74
2022-12-05T09:13:44.329Z,6.77
2022-12-05T09:15:47.535Z,6.82
2022-12-05T09:17:50.564Z,6.83
2022-12-05T09:19:55.021Z,6.81
2022-12-05T09:21:58.308Z,6.81
2022-12-05T09:24:01.924Z,6.83
2022-12-05T09:26:05.317Z,6.86
2022-12-05T09:28:08.269Z,6.90
2022-12-05T09:30:12.082Z,6.92
2022-12-05T09:32:15.051Z,6.94
2022-12-05T09:34:20.112Z,6.99
2022-12-05T09:36:26.627Z,7.03
2022-12-05T09:38:29.969Z,7.03
2022-12-05T09:40:33.206Z,7.05
2022-12-05T09:42:41.495Z,7.04
2022-12-05T09:45:00.438Z,7.04
2022-12-05T09:47:08.437Z,7.06
2022-12-05T09:49:12.596Z,7.09
2022-12-05T09:51:15.722Z,7.11
2022-12-05T09:53:27.297Z,7.15
2022-12-05T09:55:36.864Z,7.16
2022-12-05T09:57:44.417Z,7.19
2022-12-05T09:59:47.586Z,7.21
2022-12-05T10:01:56.856Z,7.24
2022-12-05T10:04:18.046Z,7.26
2022-12-05T10:06:25.190Z,7.26
2022-12-05T10:08:33.163Z,7.29
2022-12-05T10:10:46.402Z,7.30
2022-12-05T10:13:00.645Z,7.28
2022-12-05T10:15:09.782Z,7.27
2022-12-05T10:17:18.072Z,7.28
2022-12-05T10:19:26.663Z,7.27
2022-12-05T10:21:32.645Z,7.28
2022-12-05T10:23:57.165Z,7.32
2022-12-05T10:26:04.599Z,7.34
2022-12-05T10:28:13.812Z,7.32
2022-12-05T10:30:19.119Z,7.33
2022-12-05T10:32:26.961Z,7.34
2022-12-05T10:34:33.324Z,7.37
2022-12-05T10:36:36.380Z,7.39
2022-12-05T10:38:42.070Z,7.41
2022-12-05T10:40:47.589Z,7.43
2022-12-05T10:42:51.550Z,7.44
2022-12-05T10:44:58.760Z,7.42
2022-12-05T10:47:02.814Z,7.39
2022-12-05T10:49:11.124Z,7.39
2022-12-05T10:51:15.963Z,7.40
2022-12-05T10:53:22.578Z,7.42
2022-12-05T10:55:31.108Z,7.44
2022-12-05T10:57:34.188Z,7.42
2022-12-05T10:59:47.109Z,7.41
2022-12-05T11:01:52.860Z,7.42
2022-12-05T11:03:58.434Z,7.44
2022-12-05T11:06:03.154Z,7.48
2022-12-05T11:08:06.922Z,7.49
2022-12-05T11:10:26.666Z,7.53
2022-12-05T11:12:38.074Z,7.51
2022-12-05T11:14:41.337Z,7.48
2022-12-05T11:16:53.659Z,7.44
2022-12-05T11:18:56.725Z,7.41
2022-12-05T11:21:11.036Z,7.42
2022-12-05T11:23:24.427Z,7.48
2022-12-05T11:25:33.779Z,7.53
2022-12-05T11:27:38.180Z,7.58
2022-12-05T11:29:41.278Z,7.63
2022-12-05T11:31:52.290Z,7.67
2022-12-05T11:34:16.068Z,7.62
2022-12-05T11:36:21.089Z,7.56
2022-12-05T11:38:28.277Z,7.53
2022-12-05T11:40:38.629Z,7.53
2022-12-05T11:42:57.650Z,7.52
2022-12-05T11:45:11.550Z,7.54
2022-12-05T11:47:21.051Z,7.54
2022-12-05T11:49:41.299Z,7.54
2022-12-05T11:51:50.441Z,7.53
2022-12-05T11:54:13.430Z,7.49
2022-12-05T11:56:25.573Z,7.50
2022-12-05T11:58:49.346Z,7.50
2022-12-05T12:01:03.264Z,7.50
2022-12-05T12:03:32.575Z,7.54
2022-12-05T12:05:40.165Z,7.55
2022-12-05T12:07:58.357Z,7.53
2022-12-05T12:10:10.440Z,7.56
2022-12-05T12:12:19.900Z,7.62
2022-12-05T12:14:30.895Z,7.66
2022-12-05T12:16:37.914Z,7.69
2022-12-05T12:18:56.099Z,7.71
2022-12-05T12:21:06.786Z,7.70
2022-12-05T12:23:21.594Z,7.60
2022-12-05T12:25:37.382Z,7.61
2022-12-05T12:27:47.988Z,7.66
2022-12-05T12:29:59.926Z,7.73
2022-12-05T12:32:13.595Z,7.77
2022-12-05T12:34:37.324Z,7.81
2022-12-05T12:36:47.333Z,7.85
2022-12-05T12:39:08.759Z,7.85
2022-12-05T12:41:19.168Z,7.86
2022-12-05T12:43:53.069Z,7.88
2022-12-05T12:46:13.235Z,7.90
2022-12-05T12:48:29.343Z,7.94
2022-12-05T12:50:36.516Z,7.96
2022-12-05T12:52:55.001Z,7.96
2022-12-05T12:55:12.357Z,7.97
2022-12-05T12:57:23.958Z,7.96
2022-12-05T12:59:51.377Z,7.96
2022-12-05T13:01:59.496Z,7.98
2022-12-05T13:04:09.468Z,7.98
2022-12-05T13:06:16.290Z,7.97
2022-12-05T13:08:24.760Z,7.96
2022-12-05T13:10:33.015Z,7.99
2022-12-05T13:12:39.250Z,7.99
2022-12-05T13:14:47.282Z,8.01
2022-12-05T13:16:53.105Z,7.98
2022-12-05T13:18:57.967Z,7.97
2022-12-05T13:21:04.655Z,7.96
2022-12-05T13:23:09.197Z,7.99
2022-12-05T13:25:15.822Z,8.01
2022-12-05T13:27:20.181Z,7.95
2022-12-05T13:29:28.190Z,7.90
2022-12-05T13:31:39.119Z,7.94
2022-12-05T13:33:45.232Z,7.99
2022-12-05T13:36:06.897Z,8.01
2022-12-05T13:38:40.108Z,8.03
2022-12-05T13:41:09.117Z,8.03
2022-12-05T13:43:13.020Z,8.04
2022-12-05T13:45:18.580Z,8.07
2022-12-05T13:47:29.414Z,8.08
2022-12-05T13:49:37.674Z,8.08
2022-12-05T13:51:44.308Z,8.11
2022-12-05T13:53:49.548Z,8.14
2022-12-05T13:55:58.363Z,8.15
2022-12-05T13:58:02.068Z,8.17
2022-12-05T14:00:07.497Z,8.18
2022-12-05T14:02:51.233Z,8.18
2022-12-05T14:04:54.332Z,8.19
2022-12-05T14:06:59.433Z,8.19
2022-12-05T14:09:03.181Z,8.19
2022-12-05T14:11:11.474Z,8.18
2022-12-05T14:13:42.509Z,8.21
2022-12-05T14:15:46.534Z,8.22
2022-12-05T14:17:50.212Z,8.21
2022-12-05T14:20:06.134Z,8.20
2022-12-05T14:22:28.151Z,8.21
2022-12-05T14:24:34.500Z,8.21
2022-12-05T14:26:47.934Z,8.19
2022-12-05T14:29:01.950Z,8.19
2022-12-05T14:31:18.449Z,8.13
2022-12-05T14:33:23.640Z,8.08
2022-12-05T14:35:30.244Z,8.04
2022-12-05T14:37:37.748Z,8.05
2022-12-05T14:39:43.716Z,8.04
2022-12-05T14:41:47.588Z,8.03
2022-12-05T14:43:53.880Z,8.04
2022-12-05T14:46:03.536Z,8.02
2022-12-05T14:48:08.042Z,8.03
2022-12-05T14:50:35.492Z,8.04
2022-12-05T14:52:41.117Z,8.02
2022-12-05T14:54:44.827Z,7.99
2022-12-05T14:56:50.955Z,7.99
2022-12-05T14:58:57.427Z,7.97
2022-12-05T15:01:02.271Z,7.96
2022-12-05T15:03:06.238Z,7.95
2022-12-05T15:05:21.740Z,7.95
2022-12-05T15:07:34.250Z,7.94
2022-12-05T15:09:55.120Z,7.95
2022-12-05T15:11:58.728Z,7.94
2022-12-05T15:14:06.739Z,7.94
2022-12-05T15:16:16.709Z,7.95
2022-12-05T15:18:23.180Z,7.94
2022-12-05T15:20:34.371Z,7.93
2022-12-05T15:22:41.642Z,7.92
2022-12-05T15:24:46.604Z,7.91
2022-12-05T15:26:51.886Z,7.90
2022-12-05T15:29:03.643Z,7.87
2022-12-05T15:31:08.111Z,7.86
2022-12-05T15:33:12.947Z,7.87
2022-12-05T15:35:16.922Z,7.85
2022-12-05T15:37:22.354Z,7.86
2022-12-05T15:39:28.687Z,7.87
2022-12-05T15:41:33.196Z,7.83
2022-12-05T15:43:37.418Z,7.84
2022-12-05T15:45:40.655Z,7.83
2022-12-05T15:47:45.978Z,7.82
2022-12-05T15:49:49.043Z,7.83
2022-12-05T15:51:54.983Z,7.83
2022-12-05T15:54:01.844Z,7.80
2022-12-05T15:56:07.104Z,7.78
2022-12-05T15:58:16.891Z,7.78
2022-12-05T16:00:22.211Z,7.77
2022-12-05T16:02:30.310Z,7.75
2022-12-05T16:04:36.805Z,7.74
2022-12-05T16:06:42.308Z,7.73
2022-12-05T16:08:46.477Z,7.73
2022-12-05T16:10:49.683Z,7.73
2022-12-05T16:12:53.560Z,7.73
2022-12-05T16:15:01.726Z,7.72
2022-12-05T16:17:06.599Z,7.71
2022-12-05T16:19:15.751Z,7.70
2022-12-05T16:21:38.849Z,7.69
2022-12-05T16:23:44.043Z,7.68
2022-12-05T16:25:47.167Z,7.64
2022-12-05T16:27:58.342Z,7.63
2022-12-05T16:30:10.996Z,7.63
2022-12-05T16:32:19.908Z,7.62
2022-12-05T16:34:23.042Z,7.62
2022-12-05T16:36:26.139Z,7.62
2022-12-05T16:38:30.001Z,7.61
2022-12-05T16:40:33.146Z,7.61
2022-12-05T16:42:37.394Z,7.61
2022-12-05T16:45:04.661Z,7.59
2022-12-05T16:47:19.139Z,7.56
2022-12-05T16:49:42.808Z,7.54
2022-12-05T16:51:56.321Z,7.51
2022-12-05T16:53:59.868Z,7.48
2022-12-05T16:56:05.347Z,7.48
2022-12-05T16:58:13.282Z,7.48
2022-12-05T17:00:17.040Z,7.47
2022-12-05T17:02:21.619Z,7.46
2022-12-05T17:04:24.837Z,7.45
2022-12-05T17:06:28.106Z,7.44
2022-12-05T17:08:31.360Z,7.45
2022-12-05T17:10:35.150Z,7.43
2022-12-05T17:12:39.458Z,7.43
2022-12-05T17:14:44.347Z,7.42
2022-12-05T17:16:48.124Z,7.43
2022-12-05T17:18:53.037Z,7.42
2022-12-05T17:20:57.344Z,7.45
2022-12-05T17:23:01.033Z,7.47
2022-12-05T17:25:04.364Z,7.47
2022-12-05T17:27:07.626Z,7.48
2022-12-05T17:29:11.576Z,7.49
2022-12-05T17:31:17.124Z,7.50
2022-12-05T17:33:23.560Z,7.49
2022-12-05T17:35:30.672Z,7.48
2022-12-05T17:37:33.811Z,7.50
2022-12-05T17:39:36.960Z,7.50
2022-12-05T17:41:40.215Z,7.52
2022-12-05T17:43:43.686Z,7.52
2022-12-05T17:45:47.793Z,7.52
2022-12-05T17:47:51.238Z,7.52
2022-12-05T17:49:54.383Z,7.48
2022-12-05T17:52:21.049Z,7.48
2022-12-05T17:54:23.481Z,7.47
2022-12-05T17:56:27.378Z,7.45
2022-12-05T17:58:30.510Z,7.45
2022-12-05T18:00:33.822Z,7.42
2022-12-05T18:02:37.092Z,7.40
2022-12-05T18:04:40.099Z,7.38
2022-12-05T18:06:43.233Z,7.35
2022-12-05T18:08:47.739Z,7.34
2022-12-05T18:10:51.808Z,7.34
2022-12-05T18:12:55.412Z,7.31
2022-12-05T18:14:58.990Z,7.29
2022-12-05T18:17:02.547Z,7.26
2022-12-05T18:19:08.455Z,7.28
2022-12-05T18:21:13.380Z,7.28
2022-12-05T18:23:16.493Z,7.28
2022-12-05T18:25:21.396Z,7.26
2022-12-05T18:27:25.299Z,7.28
2022-12-05T18:29:28.472Z,7.27
2022-12-05T18:31:31.658Z,7.26
2022-12-05T18:33:36.423Z,7.24
2022-12-05T18:35:41.796Z,7.23
2022-12-05T18:37:44.808Z,7.21
2022-12-05T18:39:47.903Z,7.17
2022-12-05T18:41:52.377Z,7.15
2022-12-05T18:43:55.801Z,7.14
2022-12-05T18:46:00.000Z,7.14
2022-12-05T18:48:37.772Z,7.14
2022-12-05T18:50:26.625Z,7.14
2022-12-05T18:52:29.763Z,7.13
2022-12-05T18:54:32.911Z,7.11
2022-12-05T18:56:38.243Z,7.12
2022-12-05T18:58:42.668Z,7.11
2022-12-05T19:00:45.782Z,7.12
2022-12-05T19:02:49.710Z,7.14
2022-12-05T19:04:52.860Z,7.12
2022-12-05T19:06:57.707Z,7.11
2022-12-05T19:09:02.371Z,7.11
2022-12-05T19:11:05.695Z,7.10
2022-12-05T19:13:09.429Z,7.07
2022-12-05T19:15:13.914Z,7.05
2022-12-05T19:17:17.289Z,7.04
2022-12-05T19:19:21.182Z,7.02
2022-12-05T19:21:24.909Z,7.02
2022-12-05T19:23:28.597Z,7.03
2022-12-05T19:25:32.692Z,7.03
2022-12-05T19:27:36.286Z,7.03
2022-12-05T19:29:40.170Z,7.02
2022-12-05T19:31:45.707Z,7.03
2022-12-05T19:33:50.717Z,7.02
2022-12-05T19:35:53.791Z,7.03
2022-12-05T19:37:57.471Z,7.03
2022-12-05T19:40:00.691Z,7.02
2022-12-05T19:42:04.023Z,6.98
2022-12-05T19:44:07.313Z,6.97
2022-12-05T19:46:12.756Z,6.95
2022-12-05T19:48:22.654Z,6.93
2022-12-05T19:50:25.966Z,6.90
2022-12-05T19:52:31.448Z,6.89
2022-12-05T19:54:34.587Z,6.89
2022-12-05T19:56:38.130Z,6.85
2022-12-05T19:58:42.134Z,6.84
2022-12-05T20:00:45.564Z,6.82
2022-12-05T20:02:50.479Z,6.81
2022-12-05T20:04:55.075Z,6.82
2022-12-05T20:06:58.499Z,6.85
2022-12-05T20:09:01.995Z,6.85
2022-12-05T20:11:06.384Z,6.83
2022-12-05T20:13:38.542Z,6.80
2022-12-05T20:15:34.061Z,6.80
2022-12-05T20:17:37.146Z,6.80
2022-12-05T20:19:40.303Z,6.81
2022-12-05T20:21:44.972Z,6.81
2022-12-05T20:23:48.025Z,6.80
2022-12-05T20:25:51.141Z,6.81
2022-12-05T20:27:54.219Z,6.81
2022-12-05T20:29:57.534Z,6.76
2022-12-05T20:32:00.871Z,6.75
2022-12-05T20:34:04.598Z,6.75
2022-12-05T20:36:09.994Z,6.72
2022-12-05T20:38:14.830Z,6.69
2022-12-05T20:40:18.126Z,6.68
2022-12-05T20:42:21.238Z,6.70
2022-12-05T20:44:24.415Z,6.70
2022-12-05T20:46:28.372Z,6.73
2022-12-05T20:48:31.533Z,6.75
2022-12-05T20:50:35.622Z,6.75
2022-12-05T20:52:43.583Z,6.75
2022-12-05T20:54:52.179Z,6.74
2022-12-05T20:56:55.426Z,6.71
2022-12-05T20:59:00.172Z,6.71
2022-12-05T21:01:05.774Z,6.70
2022-12-05T21:03:12.846Z,6.71
2022-12-05T21:05:18.835Z,6.71
2022-12-05T21:07:21.890Z,6.73
2022-12-05T21:09:28.587Z,6.71
2022-12-05T21:11:33.311Z,6.72
2022-12-05T21:13:36.725Z,6.72
2022-12-05T21:15:39.952Z,6.72
2022-12-05T21:17:43.012Z,6.71
2022-12-05T21:19:46.454Z,6.68
2022-12-05T21:21:49.673Z,6.67
2022-12-05T21:23:54.730Z,6.68
2022-12-05T21:26:02.323Z,6.69
2022-12-05T21:28:06.807Z,6.69
2022-12-05T21:30:11.032Z,6.68
2022-12-05T21:32:14.024Z,6.68
2022-12-05T21:34:20.195Z,6.69
2022-12-05T21:36:24.103Z,6.70
2022-12-05T21:38:27.150Z,6.69
2022-12-05T21:40:30.179Z,6.67
2022-12-05T21:42:33.611Z,6.67
2022-12-05T21:44:38.537Z,6.66
2022-12-05T21:46:41.665Z,6.69
2022-12-05T21:48:45.263Z,6.69
2022-12-05T21:50:48.383Z,6.70
2022-12-05T21:52:51.926Z,6.71
2022-12-05T21:54:56.677Z,6.70
2022-12-05T21:56:59.752Z,6.69
2022-12-05T21:59:03.237Z,6.68
2022-12-05T22:01:08.522Z,6.68
2022-12-05T22:03:14.863Z,6.65
2022-12-05T22:05:18.836Z,6.65
2022-12-05T22:07:22.126Z,6.65
2022-12-05T22:09:25.187Z,6.65
2022-12-05T22:11:28.439Z,6.65
2022-12-05T22:13:31.933Z,6.66
2022-12-05T22:15:35.077Z,6.66
2022-12-05T22:17:39.749Z,6.68
2022-12-05T22:19:43.289Z,6.69
2022-12-05T22:21:46.324Z,6.69
2022-12-05T22:23:50.825Z,6.65
2022-12-05T22:25:58.645Z,6.61
2022-12-05T22:28:01.724Z,6.61
2022-12-05T22:30:06.278Z,6.59
2022-12-05T22:32:10.500Z,6.57
2022-12-05T22:34:15.108Z,6.59
2022-12-05T22:36:19.408Z,6.56
2022-12-05T22:38:22.372Z,6.49
2022-12-05T22:40:25.580Z,6.45
2022-12-05T22:42:28.601Z,6.42
2022-12-05T22:44:31.721Z,6.41
2022-12-05T22:46:34.883Z,6.42
2022-12-05T22:48:37.997Z,6.41
2022-12-05T22:50:47.108Z,6.42
2022-12-05T22:52:50.160Z,6.43
2022-12-05T22:54:53.219Z,6.44
2022-12-05T22:56:56.225Z,6.41
2022-12-05T22:59:00.807Z,6.42
2022-12-05T23:01:11.145Z,6.41
2022-12-05T23:03:15.251Z,6.38
2022-12-05T23:05:18.610Z,6.37
2022-12-05T23:07:23.264Z,6.37
2022-12-05T23:09:27.013Z,6.37
2022-12-05T23:11:30.819Z,6.38
2022-12-05T23:13:35.495Z,6.38
2022-12-05T23:15:38.931Z,6.38
2022-12-05T23:17:42.930Z,6.37
2022-12-05T23:19:46.176Z,6.38
2022-12-05T23:21:49.185Z,6.38
2022-12-05T23:23:54.809Z,6.37
2022-12-05T23:25:58.060Z,6.37
2022-12-05T23:28:01.126Z,6.35
2022-12-05T23:30:04.356Z,6.35
2022-12-05T23:32:09.549Z,6.35
2022-12-05T23:34:13.132Z,6.33
2022-12-05T23:36:16.404Z,6.33
2022-12-05T23:38:19.367Z,6.31
2022-12-05T23:40:23.784Z,6.30
2022-12-05T23:42:27.105Z,6.31
2022-12-05T23:44:30.142Z,6.28
2022-12-05T23:46:33.285Z,6.25
2022-12-05T23:48:36.777Z,6.24
2022-12-05T23:50:39.844Z,6.20
2022-12-05T23:52:42.829Z,6.20
2022-12-05T23:54:46.076Z,6.18
2022-12-05T23:56:50.441Z,6.15
2022-12-05T23:58:54.676Z,6.15
